createdAt,value
2023-04-16T00:01:36.490Z,8.23
2023-04-16T00:04:38.472Z,5.60
2023-04-16T00:07:41.081Z,6.70
2023-04-16T00:10:42.951Z,10.23
2023-04-16T00:13:44.652Z,8.17
2023-04-16T00:16:46.780Z,8.43
2023-04-16T00:19:48.460Z,6.57
2023-04-16T00:22:51.220Z,9.37
2023-04-16T00:25:53.873Z,5.47
2023-04-16T00:28:55.706Z,9.90
2023-04-16T00:31:57.483Z,7.40
2023-04-16T00:34:59.081Z,7.10
2023-04-16T00:38:00.745Z,5.90
2023-04-16T00:41:02.604Z,7.50
2023-04-16T00:44:04.259Z,8.53
2023-04-16T00:47:07.634Z,11.27
2023-04-16T00:50:10.157Z,7.23
2023-04-16T00:53:11.950Z,6.67
2023-04-16T00:56:13.798Z,9.93
2023-04-16T00:59:15.481Z,8.50
2023-04-16T01:02:17.518Z,7.30
2023-04-16T01:05:19.509Z,8.53
2023-04-16T01:08:22.038Z,7.93
2023-04-16T01:11:23.751Z,9.03
2023-04-16T01:14:25.345Z,8.80
2023-04-16T01:17:27.044Z,9.57
2023-04-16T01:20:29.038Z,5.90
2023-04-16T01:23:30.846Z,6.30
2023-04-16T01:26:32.433Z,10.00
2023-04-16T01:29:35.097Z,16.47
2023-04-16T01:32:36.980Z,7.53
2023-04-16T01:35:39.382Z,7.73
2023-04-16T01:38:41.061Z,8.10
2023-04-16T01:41:43.027Z,4.60
2023-04-16T01:44:44.679Z,7.63
2023-04-16T01:47:46.900Z,9.10
2023-04-16T01:50:48.729Z,4.63
2023-04-16T01:53:50.716Z,5.70
2023-04-16T01:56:52.249Z,5.50
2023-04-16T01:59:53.947Z,10.30
2023-04-16T02:02:57.174Z,6.67
2023-04-16T02:06:02.492Z,4.77
2023-04-16T02:09:05.626Z,5.05
2023-04-16T02:12:07.835Z,8.83
2023-04-16T02:15:09.839Z,10.00
2023-04-16T02:18:11.615Z,8.20
2023-04-16T02:21:13.988Z,6.67
2023-04-16T02:24:16.418Z,5.20
2023-04-16T02:27:18.218Z,5.87
2023-04-16T02:30:19.972Z,11.87
2023-04-16T02:33:21.834Z,7.47
2023-04-16T02:36:36.398Z,8.27
2023-04-16T02:39:38.237Z,6.17
2023-04-16T02:42:39.885Z,8.40
2023-04-16T02:45:42.263Z,5.20
2023-04-16T02:48:43.940Z,7.13
2023-04-16T02:51:45.630Z,8.03
2023-04-16T02:54:47.356Z,6.70
2023-04-16T02:57:49.116Z,9.13
2023-04-16T03:00:51.416Z,8.63
2023-04-16T03:03:53.062Z,9.40
2023-04-16T03:06:54.798Z,8.37
2023-04-16T03:09:56.478Z,7.93
2023-04-16T03:12:58.217Z,5.83
2023-04-16T03:15:59.929Z,8.23
2023-04-16T03:19:01.776Z,4.20
2023-04-16T03:22:03.514Z,11.00
2023-04-16T03:25:05.442Z,9.70
2023-04-16T03:28:07.233Z,9.23
2023-04-16T03:31:09.417Z,28.90
2023-04-16T03:34:12.865Z,6.80
2023-04-16T03:37:16.185Z,6.70
2023-04-16T03:40:18.457Z,7.53
2023-04-16T03:43:20.094Z,7.77
2023-04-16T03:46:21.950Z,7.10
2023-04-16T03:49:23.766Z,6.67
2023-04-16T03:52:26.083Z,6.17
2023-04-16T03:55:28.879Z,13.57
2023-04-16T03:58:32.449Z,10.70
2023-04-16T04:01:34.212Z,37.70
2023-04-16T04:04:36.424Z,13.63
2023-04-16T04:07:38.218Z,5.93
2023-04-16T04:10:40.374Z,7.33
2023-04-16T04:13:44.599Z,10.20
2023-04-16T04:16:46.287Z,8.00
2023-04-16T04:20:00.453Z,9.43
2023-04-16T04:23:04.659Z,10.03
2023-04-16T04:26:07.570Z,13.73
2023-04-16T04:29:09.887Z,9.00
2023-04-16T04:32:11.823Z,10.47
2023-04-16T04:35:13.547Z,11.67
2023-04-16T04:38:19.897Z,8.80
2023-04-16T04:41:22.072Z,12.27
2023-04-16T04:44:23.775Z,10.37
2023-04-16T04:47:26.365Z,14.10
2023-04-16T04:50:28.624Z,13.73
2023-04-16T04:53:30.390Z,12.73
2023-04-16T04:56:32.217Z,12.77
2023-04-16T04:59:34.196Z,14.13
2023-04-16T05:02:36.090Z,14.00
2023-04-16T05:05:39.029Z,14.80
2023-04-16T05:08:40.851Z,13.10
2023-04-16T05:11:42.456Z,11.93
2023-04-16T05:14:48.358Z,13.60
2023-04-16T05:17:50.201Z,12.47
2023-04-16T05:20:51.901Z,11.57
2023-04-16T05:23:53.613Z,15.13
2023-04-16T05:26:56.882Z,12.70
2023-04-16T05:29:58.538Z,13.00
2023-04-16T05:33:00.405Z,15.00
2023-04-16T05:36:02.180Z,14.63
2023-04-16T05:39:04.069Z,13.03
2023-04-16T05:42:05.698Z,11.93
2023-04-16T05:45:07.869Z,8.43
2023-04-16T05:48:13.856Z,6.23
2023-04-16T05:51:15.613Z,11.00
2023-04-16T05:54:17.284Z,6.60
2023-04-16T05:57:18.967Z,10.23
2023-04-16T06:00:20.984Z,10.90
2023-04-16T06:03:22.761Z,10.70
2023-04-16T06:06:24.503Z,12.20
2023-04-16T06:09:26.162Z,8.57
2023-04-16T06:12:27.741Z,10.87
2023-04-16T06:15:29.532Z,9.03
2023-04-16T06:18:31.361Z,8.07
2023-04-16T06:21:33.566Z,10.37
2023-04-16T06:24:35.367Z,10.13
2023-04-16T06:27:37.276Z,9.43
2023-04-16T06:30:39.304Z,9.37
2023-04-16T06:33:41.093Z,9.73
2023-04-16T06:36:42.760Z,9.50
2023-04-16T06:39:44.460Z,12.53
2023-04-16T06:42:46.387Z,10.90
2023-04-16T06:45:48.101Z,12.07
2023-04-16T06:48:49.867Z,10.47
2023-04-16T06:51:51.517Z,11.87
2023-04-16T06:54:53.120Z,11.10
2023-04-16T06:57:54.823Z,15.93
2023-04-16T07:00:56.555Z,10.03
2023-04-16T07:03:58.578Z,7.90
2023-04-16T07:07:00.599Z,13.83
2023-04-16T07:10:02.339Z,11.77
2023-04-16T07:13:04.003Z,11.97
2023-04-16T07:16:05.918Z,9.97
2023-04-16T07:19:07.762Z,10.27
2023-04-16T07:22:09.580Z,10.27
2023-04-16T07:25:11.287Z,15.30
2023-04-16T07:28:13.381Z,10.53
2023-04-16T07:31:15.039Z,10.13
2023-04-16T07:34:16.595Z,7.93
2023-04-16T07:37:18.338Z,10.70
2023-04-16T07:40:20.065Z,10.83
2023-04-16T07:43:21.658Z,9.17
2023-04-16T07:46:24.900Z,9.87
2023-04-16T07:49:28.176Z,9.67
2023-04-16T07:52:29.925Z,8.20
2023-04-16T07:55:31.586Z,7.67
2023-04-16T07:58:33.285Z,8.20
2023-04-16T08:01:34.986Z,8.53
2023-04-16T08:04:36.714Z,9.73
2023-04-16T08:07:38.576Z,9.43
2023-04-16T08:10:40.258Z,9.93
2023-04-16T08:13:41.857Z,9.20
2023-04-16T08:16:43.466Z,14.17
2023-04-16T08:19:45.474Z,10.77
2023-04-16T08:22:48.538Z,13.00
2023-04-16T08:25:51.848Z,10.73
2023-04-16T08:28:54.702Z,9.47
2023-04-16T08:31:56.549Z,10.53
2023-04-16T08:34:58.295Z,9.27
2023-04-16T08:38:02.366Z,11.03
2023-04-16T08:41:06.095Z,15.50
2023-04-16T08:44:08.807Z,12.10
2023-04-16T08:47:12.132Z,11.83
2023-04-16T08:50:14.840Z,10.17
2023-04-16T08:53:18.512Z,14.57
2023-04-16T08:56:21.234Z,13.77
2023-04-16T08:59:23.104Z,10.37
2023-04-16T09:02:26.398Z,12.70
2023-04-16T09:05:29.305Z,12.47
2023-04-16T09:08:32.352Z,13.70
2023-04-16T09:11:34.272Z,16.07
2023-04-16T09:14:36.364Z,14.83
2023-04-16T09:17:38.391Z,14.83
2023-04-16T09:20:40.064Z,13.43
2023-04-16T09:23:41.944Z,17.13
2023-04-16T09:26:44.173Z,13.30
2023-04-16T09:29:46.330Z,10.60
2023-04-16T09:32:48.421Z,13.37
2023-04-16T09:35:51.195Z,14.80
2023-04-16T09:38:54.495Z,14.83
2023-04-16T09:41:57.409Z,10.53
2023-04-16T09:45:00.808Z,12.53
2023-04-16T09:48:05.647Z,11.90
2023-04-16T09:51:07.592Z,11.53
2023-04-16T09:54:18.550Z,12.57
2023-04-16T09:57:22.067Z,11.37
2023-04-16T10:00:23.780Z,16.77
2023-04-16T10:03:31.638Z,14.53
2023-04-16T10:06:33.367Z,15.67
2023-04-16T10:09:38.441Z,10.83
2023-04-16T10:12:40.459Z,15.57
2023-04-16T10:15:42.178Z,19.27
2023-04-16T10:18:45.191Z,11.50
2023-04-16T10:21:47.491Z,13.30
2023-04-16T10:24:50.605Z,17.07
2023-04-16T10:27:52.471Z,13.27
2023-04-16T10:30:55.027Z,12.27
2023-04-16T10:33:56.953Z,15.03
2023-04-16T10:36:58.688Z,13.53
2023-04-16T10:40:00.494Z,10.87
2023-04-16T10:43:02.138Z,14.30
2023-04-16T10:46:22.889Z,12.17
2023-04-16T10:49:25.135Z,11.70
2023-04-16T10:52:29.258Z,11.17
2023-04-16T10:55:31.198Z,10.77
2023-04-16T10:58:35.403Z,13.80
2023-04-16T11:01:38.591Z,15.13
2023-04-16T11:04:42.335Z,14.97
2023-04-16T11:07:49.329Z,10.63
2023-04-16T11:10:51.761Z,11.90
2023-04-16T11:13:56.369Z,14.00
2023-04-16T11:16:58.174Z,12.23
2023-04-16T11:20:00.053Z,13.10
2023-04-16T11:23:01.704Z,10.43
2023-04-16T11:26:03.443Z,8.17
2023-04-16T11:29:13.277Z,11.10
2023-04-16T11:32:20.752Z,10.37
2023-04-16T11:35:22.482Z,13.27
2023-04-16T11:38:32.736Z,10.60
2023-04-16T11:41:34.541Z,10.13
2023-04-16T11:44:36.313Z,8.40
2023-04-16T11:47:45.805Z,10.77
2023-04-16T11:50:54.933Z,9.03
2023-04-16T11:53:56.695Z,9.23
2023-04-16T11:56:58.416Z,6.53
2023-04-16T12:00:01.599Z,6.73
2023-04-16T12:03:14.472Z,7.70
2023-04-16T12:06:16.471Z,7.47
2023-04-16T12:09:25.120Z,11.60
2023-04-16T12:12:32.128Z,9.37
2023-04-16T12:15:43.771Z,7.23
2023-04-16T12:18:59.193Z,7.30
2023-04-16T12:22:00.875Z,8.27
2023-04-16T12:25:03.890Z,7.10
2023-04-16T12:28:06.290Z,12.37
2023-04-16T12:31:08.585Z,7.93
2023-04-16T12:34:10.562Z,8.27
2023-04-16T12:37:12.961Z,6.87
2023-04-16T12:40:15.114Z,6.27
2023-04-16T12:43:16.989Z,6.43
2023-04-16T12:46:18.667Z,7.40
2023-04-16T12:49:20.491Z,7.50
2023-04-16T12:52:23.708Z,9.50
2023-04-16T12:55:25.966Z,12.87
2023-04-16T12:58:27.696Z,7.17
2023-04-16T13:01:29.467Z,7.67
2023-04-16T13:04:31.188Z,7.63
2023-04-16T13:07:34.041Z,9.50
2023-04-16T13:10:35.990Z,7.03
2023-04-16T13:13:37.622Z,7.00
2023-04-16T13:16:39.271Z,7.47
2023-04-16T13:19:40.929Z,8.30
2023-04-16T13:22:42.649Z,5.33
2023-04-16T13:25:44.313Z,6.23
2023-04-16T13:28:45.923Z,7.13
2023-04-16T13:31:47.784Z,7.27
2023-04-16T13:34:49.806Z,5.50
2023-04-16T13:37:51.482Z,5.37
2023-04-16T13:40:53.154Z,9.17
2023-04-16T13:43:54.969Z,11.43
2023-04-16T13:46:56.805Z,9.40
2023-04-16T13:49:58.570Z,6.27
2023-04-16T13:53:00.764Z,8.93
2023-04-16T13:56:03.745Z,8.73
2023-04-16T13:59:05.393Z,9.33
2023-04-16T14:02:07.642Z,7.73
2023-04-16T14:05:09.323Z,13.50
2023-04-16T14:08:11.333Z,6.20
2023-04-16T14:11:13.107Z,6.70
2023-04-16T14:14:14.929Z,8.77
2023-04-16T14:17:16.542Z,9.07
2023-04-16T14:20:19.105Z,9.30
2023-04-16T14:23:20.706Z,9.20
2023-04-16T14:26:22.637Z,6.47
2023-04-16T14:29:24.355Z,10.23
2023-04-16T14:32:29.060Z,6.50
2023-04-16T14:35:30.737Z,8.30
2023-04-16T14:38:32.628Z,5.23
2023-04-16T14:41:34.392Z,5.57
2023-04-16T14:44:35.964Z,6.37
2023-04-16T14:47:38.544Z,5.30
2023-04-16T14:50:43.659Z,4.10
2023-04-16T14:53:45.340Z,7.00
2023-04-16T14:56:47.526Z,6.23
2023-04-16T14:59:49.166Z,5.00
2023-04-16T15:02:51.191Z,5.00
2023-04-16T15:05:55.945Z,4.80
2023-04-16T15:08:57.873Z,6.57
2023-04-16T15:11:59.831Z,10.60
2023-04-16T15:15:01.491Z,8.13
2023-04-16T15:18:03.886Z,8.63
2023-04-16T15:21:06.250Z,6.57
2023-04-16T15:24:08.241Z,7.63
2023-04-16T15:27:11.937Z,10.27
2023-04-16T15:30:13.821Z,10.93
2023-04-16T15:33:15.565Z,9.40
2023-04-16T15:36:17.305Z,9.90
2023-04-16T15:39:18.981Z,7.80
2023-04-16T15:42:20.811Z,5.87
2023-04-16T15:45:22.555Z,9.23
2023-04-16T15:48:24.425Z,9.47
2023-04-16T15:51:26.768Z,9.77
2023-04-16T15:54:29.143Z,20.00
2023-04-16T15:57:30.802Z,12.30
2023-04-16T16:00:32.728Z,38.33
2023-04-16T16:03:36.084Z,14.10
2023-04-16T16:06:38.203Z,7.40
2023-04-16T16:09:39.960Z,10.40
2023-04-16T16:12:41.839Z,13.20
2023-04-16T16:15:43.616Z,9.50
2023-04-16T16:18:45.465Z,9.97
2023-04-16T16:21:47.085Z,7.20
2023-04-16T16:24:50.958Z,8.37
2023-04-16T16:27:52.927Z,9.97
2023-04-16T16:30:55.750Z,10.13
2023-04-16T16:33:57.477Z,8.10
2023-04-16T16:36:59.174Z,8.63
2023-04-16T16:40:00.878Z,8.37
2023-04-16T16:43:02.834Z,13.63
2023-04-16T16:46:07.368Z,10.67
2023-04-16T16:49:10.112Z,10.70
2023-04-16T16:52:11.971Z,12.67
2023-04-16T16:55:13.659Z,6.50
2023-04-16T16:58:15.511Z,8.37
2023-04-16T17:01:17.736Z,8.63
2023-04-16T17:04:20.470Z,7.37
2023-04-16T17:07:22.378Z,10.00
2023-04-16T17:10:24.214Z,9.23
2023-04-16T17:13:27.134Z,6.97
2023-04-16T17:16:28.904Z,6.27
2023-04-16T17:19:30.698Z,7.80
2023-04-16T17:22:32.444Z,7.53
2023-04-16T17:25:34.310Z,8.00
2023-04-16T17:28:36.052Z,10.10
2023-04-16T17:31:37.805Z,13.23
2023-04-16T17:34:39.554Z,7.33
2023-04-16T17:37:41.352Z,9.70
2023-04-16T17:40:43.115Z,6.33
2023-04-16T17:43:46.763Z,6.70
2023-04-16T17:46:48.392Z,8.73
2023-04-16T17:49:52.844Z,6.73
2023-04-16T17:52:54.526Z,10.77
2023-04-16T17:55:56.852Z,8.07
2023-04-16T17:58:59.322Z,10.30
2023-04-16T18:02:01.436Z,8.07
2023-04-16T18:05:03.256Z,8.27
2023-04-16T18:08:05.051Z,6.27
2023-04-16T18:11:08.226Z,6.17
2023-04-16T18:14:13.860Z,7.43
2023-04-16T18:17:15.697Z,6.20
2023-04-16T18:20:19.546Z,6.80
2023-04-16T18:23:21.410Z,6.90
2023-04-16T18:26:23.182Z,7.60
2023-04-16T18:29:25.584Z,6.40
2023-04-16T18:32:30.995Z,6.57
2023-04-16T18:35:33.122Z,9.60
2023-04-16T18:38:34.888Z,8.97
2023-04-16T18:41:36.659Z,9.03
2023-04-16T18:44:38.316Z,11.00
2023-04-16T18:47:40.683Z,10.77
2023-04-16T18:50:42.496Z,11.17
2023-04-16T18:53:45.704Z,11.17
2023-04-16T18:56:47.702Z,10.17
2023-04-16T18:59:49.469Z,10.60
2023-04-16T19:02:51.187Z,13.37
2023-04-16T19:05:53.333Z,12.10
2023-04-16T19:08:55.024Z,11.07
2023-04-16T19:11:57.475Z,19.03
2023-04-16T19:14:59.274Z,13.53
2023-04-16T19:18:00.969Z,10.37
2023-04-16T19:21:02.731Z,12.10
2023-04-16T19:24:04.546Z,17.60
2023-04-16T19:27:06.571Z,23.07
2023-04-16T19:30:08.558Z,48.00
2023-04-16T19:33:10.715Z,39.27
2023-04-16T19:36:12.512Z,40.00
2023-04-16T19:39:14.282Z,32.03
2023-04-16T19:42:15.948Z,19.23
2023-04-16T19:45:18.375Z,18.23
2023-04-16T19:48:20.556Z,16.57
2023-04-16T19:51:22.643Z,17.93
2023-04-16T19:54:24.304Z,16.50
2023-04-16T19:57:25.947Z,18.93
2023-04-16T20:00:27.679Z,18.10
2023-04-16T20:03:29.424Z,15.03
2023-04-16T20:06:31.244Z,17.63
2023-04-16T20:09:33.011Z,17.80
2023-04-16T20:12:34.695Z,15.17
2023-04-16T20:15:36.420Z,19.10
2023-04-16T20:18:41.386Z,17.17
2023-04-16T20:21:43.380Z,15.03
2023-04-16T20:24:47.961Z,19.30
2023-04-16T20:27:49.884Z,19.27
2023-04-16T20:30:51.555Z,20.83
2023-04-16T20:33:54.101Z,19.43
2023-04-16T20:36:55.879Z,18.97
2023-04-16T20:39:57.521Z,17.87
2023-04-16T20:43:02.233Z,17.70
2023-04-16T20:46:10.809Z,16.07
2023-04-16T20:49:13.894Z,13.63
2023-04-16T20:52:16.600Z,16.47
2023-04-16T20:55:18.439Z,15.40
2023-04-16T20:58:20.083Z,13.83
2023-04-16T21:01:21.830Z,16.23
2023-04-16T21:04:23.741Z,20.60
2023-04-16T21:07:25.529Z,17.70
2023-04-16T21:10:27.163Z,16.67
2023-04-16T21:13:28.835Z,18.63
2023-04-16T21:16:30.586Z,17.20
2023-04-16T21:19:32.242Z,22.90
2023-04-16T21:22:33.934Z,16.87
2023-04-16T21:25:35.600Z,15.87
2023-04-16T21:28:37.528Z,19.13
2023-04-16T21:31:39.350Z,17.40
2023-04-16T21:34:40.986Z,18.57
2023-04-16T21:37:42.684Z,18.23
2023-04-16T21:40:45.607Z,17.73
2023-04-16T21:43:47.277Z,18.83
2023-04-16T21:46:48.997Z,23.10
2023-04-16T21:49:50.698Z,17.53
2023-04-16T21:52:52.563Z,17.67
2023-04-16T21:55:54.223Z,17.17
2023-04-16T21:58:55.901Z,22.60
2023-04-16T22:01:57.571Z,16.67
2023-04-16T22:04:59.254Z,16.83
2023-04-16T22:08:04.025Z,17.07
2023-04-16T22:11:12.704Z,18.43
2023-04-16T22:14:14.690Z,18.37
2023-04-16T22:17:17.168Z,15.77
2023-04-16T22:20:18.864Z,16.70
2023-04-16T22:23:23.587Z,16.67
2023-04-16T22:26:25.320Z,17.07
2023-04-16T22:29:27.083Z,19.70
2023-04-16T22:32:30.285Z,19.97
2023-04-16T22:35:32.152Z,15.67
2023-04-16T22:38:33.835Z,16.50
2023-04-16T22:41:35.970Z,18.27
2023-04-16T22:44:37.716Z,15.27
2023-04-16T22:47:39.497Z,14.53
2023-04-16T22:50:45.847Z,19.60
2023-04-16T22:53:47.500Z,17.00
2023-04-16T22:56:50.001Z,14.73
2023-04-16T22:59:52.140Z,16.00
2023-04-16T23:02:53.898Z,20.53
2023-04-16T23:05:55.933Z,15.43
2023-04-16T23:08:57.569Z,14.90
2023-04-16T23:11:59.159Z,16.57
2023-04-16T23:15:00.908Z,17.23
2023-04-16T23:18:02.673Z,16.60
2023-04-16T23:21:04.404Z,17.33
2023-04-16T23:24:06.170Z,15.50
2023-04-16T23:27:07.841Z,12.53
2023-04-16T23:30:09.713Z,13.97
2023-04-16T23:33:11.407Z,14.63
2023-04-16T23:36:12.968Z,16.07
2023-04-16T23:39:14.656Z,16.43
2023-04-16T23:42:16.526Z,16.47
2023-04-16T23:45:18.266Z,13.03
2023-04-16T23:48:19.859Z,16.40
2023-04-16T23:51:21.521Z,12.63
2023-04-16T23:54:23.338Z,14.37
2023-04-16T23:57:25.056Z,15.27
